Time;durP1;ratioP1;P1;durP2;ratioP2;P2;SDS_P1;SDS_P2;PMS_P1;PMS_P2;Temp;Humidity;BMP_temperature;BMP_pressure;BME280_temperature;BME280_humidity;BME280_pressure;Samples;Min_cycle;Max_cycle;Signal;HPM_P1;HPM_P2
2021/12/22 00:00:02;;;;;;;19.3;10.8;;;;;;;;;;;;;
2021/12/22 00:02:33;;;;;;;17.9;10.6;;;;;;;;;;;;;
2021/12/22 00:04:56;;;;;;;19.7;10.8;;;;;;;;;;;;;
2021/12/22 00:07:21;;;;;;;19.5;10.6;;;;;;;;;;;;;
2021/12/22 00:09:46;;;;;;;18.9;10.3;;;;;;;;;;;;;
2021/12/22 00:12:11;;;;;;;17.9;10.5;;;;;;;;;;;;;
2021/12/22 00:14:36;;;;;;;19.4;10.9;;;;;;;;;;;;;
2021/12/22 00:17:01;;;;;;;19.1;10.5;;;;;;;;;;;;;
2021/12/22 00:19:27;;;;;;;19;10.4;;;;;;;;;;;;;
2021/12/22 00:21:52;;;;;;;20.9;10.8;;;;;;;;;;;;;
2021/12/22 00:24:17;;;;;;;18.6;10.5;;;;;;;;;;;;;
2021/12/22 00:26:42;;;;;;;18.8;11;;;;;;;;;;;;;
2021/12/22 00:29:08;;;;;;;19.6;10.8;;;;;;;;;;;;;
2021/12/22 00:31:39;;;;;;;20.3;13.2;;;;;;;;;;;;;
2021/12/22 00:33:58;;;;;;;21.9;13.4;;;;;;;;;;;;;
2021/12/22 00:36:23;;;;;;;21.1;11.7;;;;;;;;;;;;;
2021/12/22 00:38:48;;;;;;;21.1;12.4;;;;;;;;;;;;;
2021/12/22 00:41:13;;;;;;;26.6;12.6;;;;;;;;;;;;;
2021/12/22 00:43:38;;;;;;;18.6;10.8;;;;;;;;;;;;;
2021/12/22 00:46:04;;;;;;;17.9;10.1;;;;;;;;;;;;;
2021/12/22 00:48:29;;;;;;;19.9;10.4;;;;;;;;;;;;;
2021/12/22 00:50:54;;;;;;;23.5;13;;;;;;;;;;;;;
2021/12/22 00:53:41;;;;;;;24.7;12.3;;;;;;;;;;;;;
2021/12/22 00:56:07;;;;;;;22.8;11.8;;;;;;;;;;;;;
2021/12/22 00:58:31;;;;;;;23.7;11.9;;;;;;;;;;;;;
2021/12/22 01:00:56;;;;;;;20.1;11.1;;;;;;;;;;;;;
2021/12/22 01:03:22;;;;;;;20.9;10.3;;;;;;;;;;;;;
2021/12/22 01:05:47;;;;;;;19.2;10.2;;;;;;;;;;;;;
2021/12/22 01:08:12;;;;;;;17.3;10.3;;;;;;;;;;;;;
2021/12/22 01:10:38;;;;;;;17.8;10.3;;;;;;;;;;;;;
2021/12/22 01:13:03;;;;;;;21.8;10.2;;;;;;;;;;;;;
2021/12/22 01:15:28;;;;;;;17.3;9.9;;;;;;;;;;;;;
2021/12/22 01:17:59;;;;;;;18.2;10.2;;;;;;;;;;;;;
2021/12/22 01:20:23;;;;;;;22.4;10.5;;;;;;;;;;;;;
2021/12/22 01:22:49;;;;;;;19.4;10.6;;;;;;;;;;;;;
2021/12/22 01:25:11;;;;;;;18.2;10.8;;;;;;;;;;;;;
2021/12/22 01:27:38;;;;;;;19.2;9.8;;;;;;;;;;;;;
2021/12/22 01:30:01;;;;;;;16.7;9.4;;;;;;;;;;;;;
2021/12/22 01:32:27;;;;;;;17.8;9.5;;;;;;;;;;;;;
2021/12/22 01:34:51;;;;;;;15.4;9;;;;;;;;;;;;;
2021/12/22 01:37:17;;;;;;;13.9;8;;;;;;;;;;;;;
2021/12/22 01:39:42;;;;;;;13.6;7.7;;;;;;;;;;;;;
2021/12/22 01:42:08;;;;;;;14.5;8;;;;;;;;;;;;;
2021/12/22 01:44:45;;;;;;;16;8.3;;;;;;;;;;;;;
2021/12/22 01:49:24;;;;;;;15.4;8.6;;;;;;;;;;;;;
2021/12/22 01:51:49;;;;;;;14;8.2;;;;;;;;;;;;;
2021/12/22 01:54:15;;;;;;;13.9;8.2;;;;;;;;;;;;;
2021/12/22 01:56:41;;;;;;;14.7;8.3;;;;;;;;;;;;;
2021/12/22 01:59:05;;;;;;;16;8.5;;;;;;;;;;;;;
2021/12/22 02:01:30;;;;;;;16.4;8.4;;;;;;;;;;;;;
2021/12/22 02:03:55;;;;;;;15.8;7.8;;;;;;;;;;;;;
2021/12/22 02:06:20;;;;;;;14.8;8.6;;;;;;;;;;;;;
2021/12/22 02:08:45;;;;;;;13.4;8.1;;;;;;;;;;;;;
2021/12/22 02:11:10;;;;;;;13.7;7.9;;;;;;;;;;;;;
2021/12/22 02:13:40;;;;;;;14;7.5;;;;;;;;;;;;;
2021/12/22 02:16:08;;;;;;;14.7;8.2;;;;;;;;;;;;;
2021/12/22 02:18:31;;;;;;;12.9;8;;;;;;;;;;;;;
2021/12/22 02:20:58;;;;;;;12.5;7.5;;;;;;;;;;;;;
2021/12/22 02:23:23;;;;;;;13.5;7.7;;;;;;;;;;;;;
2021/12/22 02:25:52;;;;;;;13.3;7.3;;;;;;;;;;;;;
2021/12/22 02:28:19;;;;;;;11.8;6.7;;;;;;;;;;;;;
2021/12/22 02:30:38;;;;;;;13;7.8;;;;;;;;;;;;;
2021/12/22 02:33:21;;;;;;;13.2;7.5;;;;;;;;;;;;;
2021/12/22 02:35:42;;;;;;;13.8;7.8;;;;;;;;;;;;;
2021/12/22 02:37:58;;;;;;;13.9;7.8;;;;;;;;;;;;;
2021/12/22 02:40:25;;;;;;;13.4;7.7;;;;;;;;;;;;;
2021/12/22 02:42:52;;;;;;;13.4;8.1;;;;;;;;;;;;;
2021/12/22 02:45:12;;;;;;;14;7.5;;;;;;;;;;;;;
2021/12/22 02:47:39;;;;;;;14.2;7.8;;;;;;;;;;;;;
2021/12/22 02:50:04;;;;;;;13;7.6;;;;;;;;;;;;;
2021/12/22 02:52:38;;;;;;;12.9;7.4;;;;;;;;;;;;;
2021/12/22 02:54:57;;;;;;;11.6;7;;;;;;;;;;;;;
2021/12/22 02:57:27;;;;;;;14;8.1;;;;;;;;;;;;;
2021/12/22 03:00:04;;;;;;;12.7;7.2;;;;;;;;;;;;;
2021/12/22 03:02:24;;;;;;;14;7.5;;;;;;;;;;;;;
2021/12/22 03:04:45;;;;;;;13.7;7.5;;;;;;;;;;;;;
2021/12/22 03:07:06;;;;;;;13;7.6;;;;;;;;;;;;;
2021/12/22 03:09:27;;;;;;;12.7;6.9;;;;;;;;;;;;;
2021/12/22 03:11:52;;;;;;;13.3;7.4;;;;;;;;;;;;;
2021/12/22 03:14:17;;;;;;;13.1;7.4;;;;;;;;;;;;;
2021/12/22 03:16:46;;;;;;;13.7;7.5;;;;;;;;;;;;;
2021/12/22 03:19:11;;;;;;;13.6;7.5;;;;;;;;;;;;;
2021/12/22 03:21:36;;;;;;;12.1;7;;;;;;;;;;;;;
2021/12/22 03:24:01;;;;;;;11.8;7.2;;;;;;;;;;;;;
2021/12/22 03:26:28;;;;;;;13.9;7.1;;;;;;;;;;;;;
2021/12/22 03:28:51;;;;;;;10.7;6.5;;;;;;;;;;;;;
2021/12/22 03:31:17;;;;;;;11.5;6.5;;;;;;;;;;;;;
2021/12/22 03:33:42;;;;;;;12;6.1;;;;;;;;;;;;;
2021/12/22 03:36:09;;;;;;;12.4;6.6;;;;;;;;;;;;;
2021/12/22 03:38:35;;;;;;;11.4;6.7;;;;;;;;;;;;;
2021/12/22 03:41:02;;;;;;;12.8;7.2;;;;;;;;;;;;;
2021/12/22 03:43:28;;;;;;;11.9;6.8;;;;;;;;;;;;;
2021/12/22 03:45:53;;;;;;;11;6.2;;;;;;;;;;;;;
2021/12/22 03:48:18;;;;;;;12.5;6.6;;;;;;;;;;;;;
2021/12/22 03:50:43;;;;;;;11.9;6.9;;;;;;;;;;;;;
2021/12/22 03:53:08;;;;;;;12.4;6.9;;;;;;;;;;;;;
2021/12/22 03:55:34;;;;;;;11.6;6.6;;;;;;;;;;;;;
2021/12/22 03:57:59;;;;;;;11.8;7.2;;;;;;;;;;;;;
2021/12/22 04:02:31;;;;;;;11.5;6.3;;;;;;;-7.99;85.63672;943.6717;;;;
2021/12/22 04:04:56;;;;;;;12;6.6;;;;;;;-8.01;85.42285;943.6805;;;;
2021/12/22 04:07:21;;;;;;;13.3;7.1;;;;;;;-8.17;85.88086;943.6671;;;;
2021/12/22 04:09:46;;;;;;;13.1;7.1;;;;;;;-8.14;86.40234;943.6948;;;;
2021/12/22 04:12:11;;;;;;;11.6;6.6;;;;;;;-8.16;86.23242;943.6648;;;;
2021/12/22 04:14:37;;;;;;;10.6;6.3;;;;;;;-8.16;86.21094;943.5963;;;;
2021/12/22 04:17:03;;;;;;;12.1;6.4;;;;;;;-8.22;86.37402;943.5984;;;;
2021/12/22 04:19:31;;;;;;;13.1;6.6;;;;;;;-8.22;86.90918;943.6478;;;;
2021/12/22 04:21:56;;;;;;;13.2;7.4;;;;;;;-8.15;87.7002;943.6259;;;;
2021/12/22 04:24:24;;;;;;;12.5;7.2;;;;;;;-8.1;87.45801;943.6805;;;;
2021/12/22 04:26:50;;;;;;;11.8;7.3;;;;;;;-8.06;87.22754;943.7194;;;;
2021/12/22 04:29:16;;;;;;;11.8;6.9;;;;;;;-8.09;86.89453;943.6972;;;;
2021/12/22 04:31:41;;;;;;;10.2;6.1;;;;;;;-8.03;86.81836;943.6957;;;;
2021/12/22 04:34:09;;;;;;;11.8;6.3;;;;;;;-7.94;86.4541;943.6916;;;;
2021/12/22 04:36:33;;;;;;;12.5;6.1;;;;;;;-7.92;85.94629;943.6752;;;;
2021/12/22 04:39:01;;;;;;;12.7;6.8;;;;;;;-7.91;85.82617;943.7438;;;;
2021/12/22 04:41:26;;;;;;;11.8;6.5;;;;;;;-7.99;85.85449;943.7011;;;;
2021/12/22 04:43:53;;;;;;;11.6;6.1;;;;;;;-7.97;85.67285;943.7646;;;;
2021/12/22 04:46:18;;;;;;;11.5;6.2;;;;;;;-8.03;85.8125;943.7896;;;;
2021/12/22 04:48:44;;;;;;;16.2;7.2;;;;;;;-8.06;85.87305;943.8024;;;;
2021/12/22 04:51:22;;;;;;;11.9;6.3;;;;;;;-8.01;85.96973;943.7258;;;;
2021/12/22 04:53:46;;;;;;;10.8;5.7;;;;;;;-7.95;85.52344;943.6633;;;;
2021/12/22 04:56:00;;;;;;;9.8;5.8;;;;;;;-7.87;85.2666;943.6337;;;;
2021/12/22 04:58:26;;;;;;;9.8;6.2;;;;;;;-7.87;84.51465;943.7687;;;;
2021/12/22 05:00:51;;;;;;;11.4;6.2;;;;;;;-8.01;84.75684;943.7129;;;;
2021/12/22 05:03:18;;;;;;;10.9;6.3;;;;;;;-8.19;84.9834;943.7573;;;;
2021/12/22 05:05:43;;;;;;;9.7;5.4;;;;;;;-8.2;85.49512;943.7775;;;;
2021/12/22 05:08:10;;;;;;;11.4;6.1;;;;;;;-8.16;85.45703;943.743;;;;
2021/12/22 05:10:35;;;;;;;9.6;5.8;;;;;;;-8.01;85.35742;943.7706;;;;
2021/12/22 05:13:01;;;;;;;11.6;5.6;;;;;;;-7.91;85.30176;943.7947;;;;
2021/12/22 05:15:35;;;;;;;11;5.9;;;;;;;-7.89;84.87891;943.8073;;;;
2021/12/22 05:20:19;;;;;;;31.8;15.7;;;;;;;-7.92;84.96289;943.8494;;;;
2021/12/22 05:22:44;;;;;;;21.2;10.5;;;;;;;-7.83;85.1543;943.8387;;;;
2021/12/22 05:25:16;;;;;;;11.6;7.2;;;;;;;-7.74;85.46777;943.7547;;;;
2021/12/22 05:27:41;;;;;;;12;7.6;;;;;;;-7.67;85.11133;943.8632;;;;
2021/12/22 05:30:17;;;;;;;15.8;6.9;;;;;;;-7.81;84.85352;943.7734;;;;
2021/12/22 05:32:42;;;;;;;11.9;7.2;;;;;;;-7.98;85.30859;943.8359;;;;
2021/12/22 05:35:07;;;;;;;10.5;6.4;;;;;;;-7.97;85.68359;943.7518;;;;
2021/12/22 05:37:34;;;;;;;12;6.6;;;;;;;-7.91;85.77344;943.8524;;;;
2021/12/22 05:39:59;;;;;;;11.6;6;;;;;;;-7.91;85.7627;943.8498;;;;
2021/12/22 05:42:25;;;;;;;11.1;6.9;;;;;;;-7.87;85.33105;943.7503;;;;
2021/12/22 05:44:50;;;;;;;12;7.4;;;;;;;-7.92;85.19043;943.733;;;;
2021/12/22 05:47:16;;;;;;;13.9;8.1;;;;;;;-8.04;85.30859;943.8613;;;;
2021/12/22 05:49:43;;;;;;;12.7;7.3;;;;;;;-8.05;85.54883;943.8186;;;;
2021/12/22 05:52:08;;;;;;;12;6.4;;;;;;;-8.07;85.43359;943.7978;;;;
2021/12/22 05:54:37;;;;;;;11.4;6.9;;;;;;;-8.18;85.7041;943.7891;;;;
2021/12/22 05:57:03;;;;;;;12.6;6.2;;;;;;;-8.34;86.39355;943.7544;;;;
2021/12/22 05:59:28;;;;;;;12.1;6.7;;;;;;;-8.31;87.02148;943.7985;;;;
2021/12/22 06:01:53;;;;;;;11.5;6.2;;;;;;;-8.23;86.63477;943.6794;;;;
2021/12/22 06:04:20;;;;;;;11.8;6.5;;;;;;;-8.34;86.24023;943.7698;;;;
2021/12/22 06:06:46;;;;;;;11.5;6.3;;;;;;;-8.42;86.1582;943.8062;;;;
2021/12/22 06:09:12;;;;;;;13.9;6.8;;;;;;;-8.4;86.1748;943.7788;;;;
2021/12/22 06:11:38;;;;;;;10.2;6.2;;;;;;;-8.52;86.19141;943.6747;;;;
2021/12/22 06:14:04;;;;;;;20.7;10.6;;;;;;;-8.46;86.00684;943.7511;;;;
2021/12/22 06:16:40;;;;;;;9.5;5.7;;;;;;;-8.42;85.87402;943.7015;;;;
2021/12/22 06:19:09;;;;;;;11.4;6.6;;;;;;;-8.56;86.49902;943.8116;;;;
2021/12/22 06:21:31;;;;;;;13.6;8.1;;;;;;;-8.48;86.74512;943.8599;;;;
2021/12/22 06:23:57;;;;;;;11.7;6.1;;;;;;;-8.33;86.53906;943.7986;;;;
2021/12/22 06:26:22;;;;;;;10.1;5.9;;;;;;;-8.33;86.19824;943.8116;;;;
2021/12/22 06:28:50;;;;;;;13;6.7;;;;;;;-8.29;86.09668;943.8053;;;;
2021/12/22 06:31:15;;;;;;;15.4;7.1;;;;;;;-8.33;85.71777;943.775;;;;
2021/12/22 06:33:41;;;;;;;13.9;7.4;;;;;;;-8.42;86.02734;943.8164;;;;
2021/12/22 06:36:06;;;;;;;14;7.1;;;;;;;-8.53;86.35352;943.8077;;;;
2021/12/22 06:38:31;;;;;;;12.6;7.1;;;;;;;-8.58;86.74609;943.7614;;;;
2021/12/22 06:40:56;;;;;;;13.8;8.8;;;;;;;-8.57;87.16309;943.838;;;;
2021/12/22 06:43:24;;;;;;;14;7.9;;;;;;;-8.46;87.17676;943.8282;;;;
2021/12/22 06:45:48;;;;;;;12;7.2;;;;;;;-8.27;88.70215;943.7916;;;;
2021/12/22 06:48:13;;;;;;;12.9;6.9;;;;;;;-8.13;87.61621;943.8142;;;;
2021/12/22 06:50:38;;;;;;;15.8;7.6;;;;;;;-8;86.72559;943.8373;;;;
2021/12/22 06:53:04;;;;;;;11.8;7;;;;;;;-8;85.83105;943.7342;;;;
2021/12/22 06:55:29;;;;;;;15.6;7.9;;;;;;;-7.91;85.72949;943.7698;;;;
2021/12/22 06:57:55;;;;;;;12.1;7.5;;;;;;;-7.92;84.98242;943.818;;;;
2021/12/22 07:00:20;;;;;;;12.5;7.1;;;;;;;-7.98;85.0791;943.84;;;;
2021/12/22 07:02:47;;;;;;;11.3;6.3;;;;;;;-8.12;85.91406;943.8351;;;;
2021/12/22 07:05:12;;;;;;;10.2;5.6;;;;;;;-8.28;87.21484;943.7372;;;;
2021/12/22 07:07:40;;;;;;;12.6;6.5;;;;;;;-8.24;87.97559;943.7098;;;;
2021/12/22 07:10:07;;;;;;;10.5;6.6;;;;;;;-8.19;88.06152;943.744;;;;
2021/12/22 07:12:32;;;;;;;9.7;6.1;;;;;;;-8.12;87.75;943.7177;;;;
2021/12/22 07:14:57;;;;;;;11.3;6.2;;;;;;;-8.07;87.24512;943.6841;;;;
2021/12/22 07:17:23;;;;;;;12.6;6.4;;;;;;;-8.06;87.09668;943.6689;;;;
2021/12/22 07:19:53;;;;;;;12.9;7.4;;;;;;;-7.86;91.44531;943.6656;;;;
2021/12/22 07:22:18;;;;;;;13.5;7.4;;;;;;;-7.86;90.4834;943.7093;;;;
2021/12/22 07:24:46;;;;;;;11.9;7;;;;;;;-7.95;88.08105;943.6284;;;;
2021/12/22 07:27:15;;;;;;;12.1;7.1;;;;;;;-7.91;87.28223;943.7049;;;;
2021/12/22 07:29:41;;;;;;;13.5;7.2;;;;;;;-7.9;86.84473;943.7848;;;;
2021/12/22 07:32:05;;;;;;;12;7.6;;;;;;;-8.03;86.20605;943.6741;;;;
2021/12/22 07:34:34;;;;;;;14.1;7.7;;;;;;;-8.08;86.18555;943.7321;;;;
2021/12/22 07:36:59;;;;;;;11.2;6.6;;;;;;;-8.08;86.34961;943.5739;;;;
2021/12/22 07:39:24;;;;;;;11.9;7.3;;;;;;;-7.92;90.31641;943.5682;;;;
2021/12/22 07:41:49;;;;;;;12.9;6.9;;;;;;;-7.81;89.56641;943.5506;;;;
2021/12/22 07:44:16;;;;;;;14.5;7.4;;;;;;;-7.81;87.28125;943.7086;;;;
2021/12/22 07:46:42;;;;;;;16.7;8.7;;;;;;;-7.84;86.68457;943.6832;;;;
2021/12/22 07:49:07;;;;;;;22;10.8;;;;;;;-7.72;87.07031;943.6594;;;;
2021/12/22 07:51:33;;;;;;;20;10.7;;;;;;;-7.58;86.33301;943.6827;;;;
2021/12/22 07:54:00;;;;;;;14.5;8.2;;;;;;;-7.59;85.45605;943.6669;;;;
2021/12/22 07:56:25;;;;;;;13;8.1;;;;;;;-7.76;85.21484;943.6761;;;;
2021/12/22 07:58:51;;;;;;;13.9;8;;;;;;;-7.85;85.55469;943.5886;;;;
2021/12/22 08:01:15;;;;;;;11.9;7.5;;;;;;;-7.84;85.5459;943.5782;;;;
2021/12/22 08:03:40;;;;;;;12.5;7.7;;;;;;;-7.78;86.19336;943.7136;;;;
2021/12/22 08:06:05;;;;;;;12.7;7.3;;;;;;;-7.78;85.47168;943.7399;;;;
2021/12/22 08:08:31;;;;;;;10.6;6.7;;;;;;;-7.8;85.31445;943.7205;;;;
2021/12/22 08:10:56;;;;;;;11;6.8;;;;;;;-7.73;85.58105;943.7043;;;;
2021/12/22 08:13:22;;;;;;;12.8;6.6;;;;;;;-7.25;84.54102;943.7536;;;;
2021/12/22 08:15:49;;;;;;;9;5.8;;;;;;;-6.52;82.86816;943.7985;;;;
2021/12/22 08:18:15;;;;;;;8.9;5.8;;;;;;;-4.81;76.95703;943.6818;;;;
2021/12/22 08:20:44;;;;;;;13.5;6.7;;;;;;;-3.24;70.4248;943.6605;;;;
2021/12/22 08:23:09;;;;;;;14;7.4;;;;;;;-2.07;67.4502;943.5922;;;;
2021/12/22 08:25:38;;;;;;;11.7;6.6;;;;;;;-1.32;62.88477;943.6407;;;;
2021/12/22 08:28:03;;;;;;;11.5;6.1;;;;;;;0.23;59.40723;943.6756;;;;
2021/12/22 08:30:31;;;;;;;9;6;;;;;;;1.19;54.01172;943.6367;;;;
2021/12/22 08:33:04;;;;;;;10.9;6.1;;;;;;;0.37;54.59668;943.6353;;;;
2021/12/22 08:35:25;;;;;;;12.2;6.7;;;;;;;0.19;55.24219;943.6796;;;;
2021/12/22 08:40:14;;;;;;;11.4;7;;;;;;;0.48;54.20996;943.6197;;;;
2021/12/22 08:42:39;;;;;;;14.2;7.7;;;;;;;0.15;55.44922;943.5549;;;;
2021/12/22 08:45:04;;;;;;;11.6;7.1;;;;;;;-0.99;58.86719;943.6797;;;;
2021/12/22 08:47:29;;;;;;;12.7;7.6;;;;;;;-2.08;62.91699;943.7632;;;;
2021/12/22 08:49:56;;;;;;;13.8;8.5;;;;;;;-3.28;67.9541;943.8206;;;;
2021/12/22 08:52:21;;;;;;;11.5;7.6;;;;;;;-3.87;71.26758;943.7686;;;;
2021/12/22 08:54:46;;;;;;;12.5;8.1;;;;;;;-4.09;73.34863;943.8173;;;;
2021/12/22 08:57:11;;;;;;;15.6;7.6;;;;;;;-4.29;75.02148;943.8909;;;;
2021/12/22 08:59:38;;;;;;;11.3;6.8;;;;;;;-4.42;76.03516;943.9266;;;;
2021/12/22 09:02:03;;;;;;;21.2;10.6;;;;;;;-4.68;77.5957;943.9609;;;;
2021/12/22 09:04:31;;;;;;;14.4;8.5;;;;;;;-4.64;78.59375;943.908;;;;
2021/12/22 09:06:56;;;;;;;16.8;9.7;;;;;;;-4.6;79.06543;943.9352;;;;
2021/12/22 09:09:22;;;;;;;16.9;9.1;;;;;;;-4.66;79.78223;943.955;;;;
2021/12/22 09:11:47;;;;;;;13.6;8.2;;;;;;;-4.61;80.49707;943.9308;;;;
2021/12/22 09:14:13;;;;;;;16.4;8.8;;;;;;;-4.32;80.24219;943.9124;;;;
2021/12/22 09:16:44;;;;;;;15;7.8;;;;;;;-4.5;80.58301;943.9583;;;;
2021/12/22 09:19:10;;;;;;;16.7;9.8;;;;;;;-4.62;81.19922;943.9919;;;;
2021/12/22 09:21:36;;;;;;;22.9;11.3;;;;;;;-4.46;81.31836;944.0353;;;;
2021/12/22 09:24:01;;;;;;;16.1;8.3;;;;;;;-4.56;80.28418;944.0864;;;;
2021/12/22 09:26:29;;;;;;;11.2;7.4;;;;;;;-4.52;81.44922;944.0815;;;;
2021/12/22 09:28:56;;;;;;;11.1;6.1;;;;;;;-4.57;81.1416;944.0814;;;;
2021/12/22 09:31:21;;;;;;;14.4;6.7;;;;;;;-4.47;81.43652;944.1076;;;;
2021/12/22 09:33:46;;;;;;;8.9;5.3;;;;;;;-4.37;81.16016;944.1284;;;;
2021/12/22 09:36:13;;;;;;;8.8;4.8;;;;;;;-4.27;80.65039;944.1558;;;;
2021/12/22 09:38:38;;;;;;;8;5.4;;;;;;;-3.98;85.31641;944.1183;;;;
2021/12/22 09:41:05;;;;;;;8.3;5.7;;;;;;;-3.75;84.23828;944.0847;;;;
2021/12/22 09:43:30;;;;;;;8.5;5.2;;;;;;;-3.53;82.42773;944.0305;;;;
2021/12/22 09:46:03;;;;;;;14.6;7.6;;;;;;;-3.36;82.05078;943.9781;;;;
2021/12/22 09:48:34;;;;;;;17.3;8.7;;;;;;;-3.35;81.71191;943.9322;;;;
2021/12/22 09:50:52;;;;;;;9.2;5.4;;;;;;;-3.2;79.30762;943.9981;;;;
2021/12/22 09:53:14;;;;;;;6.2;4.1;;;;;;;-3.2;77.99219;943.9213;;;;
2021/12/22 09:55:39;;;;;;;6.5;4.1;;;;;;;-2.92;77.49121;943.8956;;;;
2021/12/22 09:58:04;;;;;;;7.2;4.1;;;;;;;-2.73;76.79492;943.8983;;;;
2021/12/22 10:00:33;;;;;;;5.5;3.7;;;;;;;-2.6;76;943.8577;;;;
2021/12/22 10:02:56;;;;;;;11.4;5.8;;;;;;;-2.44;75.82031;943.8459;;;;
2021/12/22 10:05:22;;;;;;;9.5;6.3;;;;;;;-2.3;75.66602;943.8372;;;;
2021/12/22 10:07:48;;;;;;;6.4;3.9;;;;;;;-2.32;74.92285;943.7879;;;;
2021/12/22 10:10:15;;;;;;;10.9;4.3;;;;;;;-2.3;75.40039;943.7836;;;;
2021/12/22 10:12:43;;;;;;;12.1;5.9;;;;;;;-2.33;76.32617;943.7302;;;;
2021/12/22 10:15:06;;;;;;;10.8;5.9;;;;;;;-2.39;76.65039;943.7139;;;;
2021/12/22 10:17:31;;;;;;;10.3;6.1;;;;;;;-2.25;76.13086;943.6665;;;;
2021/12/22 10:19:59;;;;;;;11.9;6.9;;;;;;;-2.15;76.11523;943.6114;;;;
2021/12/22 10:22:24;;;;;;;11.4;6.7;;;;;;;-2.42;76.9082;943.5756;;;;
2021/12/22 10:24:49;;;;;;;10.4;6;;;;;;;-2.34;76.95801;943.5536;;;;
2021/12/22 10:27:15;;;;;;;9.5;5.3;;;;;;;-2.34;76.64746;943.5027;;;;
2021/12/22 10:29:40;;;;;;;9.1;4.6;;;;;;;-2.16;76.56836;943.5427;;;;
2021/12/22 10:32:05;;;;;;;12.3;6.4;;;;;;;-2.28;75.53809;943.5089;;;;
2021/12/22 10:34:30;;;;;;;12.8;7.6;;;;;;;-2.08;75.03223;943.4444;;;;
2021/12/22 10:36:55;;;;;;;18.6;9.6;;;;;;;-1.96;73.12305;943.4028;;;;
2021/12/22 10:39:20;;;;;;;19.8;10;;;;;;;-1.82;72.9707;943.3104;;;;
2021/12/22 10:41:45;;;;;;;18.5;9.3;;;;;;;-1.75;73.57031;943.3464;;;;
2021/12/22 10:44:11;;;;;;;11.7;5.9;;;;;;;-1.89;74.83203;943.3318;;;;
2021/12/22 10:46:36;;;;;;;22.2;8.7;;;;;;;-1.88;75.52246;943.2132;;;;
2021/12/22 10:49:17;;;;;;;12;5.9;;;;;;;-1.95;77.80469;943.2676;;;;
2021/12/22 10:51:26;;;;;;;6.6;3.8;;;;;;;-2.12;77.16211;943.1752;;;;
2021/12/22 10:53:53;;;;;;;8.3;3.8;;;;;;;-1.81;76.48828;943.2205;;;;
2021/12/22 10:56:20;;;;;;;5.2;2.7;;;;;;;-1.86;75.72363;943.1658;;;;
2021/12/22 10:58:45;;;;;;;7.4;3;;;;;;;-2.01;75.98633;943.1349;;;;
2021/12/22 11:01:16;;;;;;;11.5;3.3;;;;;;;-1.9;76.36035;943.0636;;;;
2021/12/22 11:03:42;;;;;;;4.8;2.9;;;;;;;-1.9;76.2168;943.0025;;;;
2021/12/22 11:06:05;;;;;;;12.2;4.3;;;;;;;-1.65;76.12891;943.024;;;;
2021/12/22 11:08:31;;;;;;;8.4;3.3;;;;;;;-1.56;76.13477;942.9472;;;;
2021/12/22 11:10:56;;;;;;;7.7;3.4;;;;;;;-1.64;77.00781;942.865;;;;
2021/12/22 11:13:21;;;;;;;12.6;4.1;;;;;;;-1.37;76.20215;942.9147;;;;
2021/12/22 11:15:55;;;;;;;10.8;3.3;;;;;;;-1.47;75.5625;942.8994;;;;
2021/12/22 11:18:19;;;;;;;11.3;3.4;;;;;;;-1.27;74.50781;942.8117;;;;
2021/12/22 11:20:46;;;;;;;5.7;2.8;;;;;;;-1.33;73.33105;942.7847;;;;
2021/12/22 11:23:14;;;;;;;16.6;4.1;;;;;;;-1.24;72.82813;942.7061;;;;
2021/12/22 11:25:42;;;;;;;16.3;4.4;;;;;;;-1.24;73.83691;942.7036;;;;
2021/12/22 11:28:04;;;;;;;10.3;3.4;;;;;;;-1.02;72.78809;942.6344;;;;
2021/12/22 11:30:31;;;;;;;9.2;3.2;;;;;;;-0.83;71.6084;942.562;;;;
2021/12/22 11:32:56;;;;;;;19;5.1;;;;;;;-0.65;71.76172;942.5382;;;;
2021/12/22 11:35:23;;;;;;;39.4;7;;;;;;;-0.52;70.61523;942.4735;;;;
2021/12/22 11:37:48;;;;;;;12.6;4.6;;;;;;;-0.31;70.06152;942.4406;;;;
2021/12/22 11:40:17;;;;;;;14.3;5;;;;;;;-0.16;70.56445;942.4188;;;;
2021/12/22 11:42:40;;;;;;;23.2;6.7;;;;;;;-0.21;69.62012;942.3768;;;;
2021/12/22 11:45:06;;;;;;;9.7;4.5;;;;;;;-0.2;69.62109;942.3884;;;;
2021/12/22 11:47:32;;;;;;;14.3;4.8;;;;;;;-0.11;70.53809;942.4009;;;;
2021/12/22 11:49:58;;;;;;;9.2;3.6;;;;;;;0;69.24316;942.326;;;;
2021/12/22 11:52:22;;;;;;;33.2;6.1;;;;;;;0.01;69.0332;942.2794;;;;
2021/12/22 11:54:48;;;;;;;33.4;6.7;;;;;;;0.16;69.46973;942.2484;;;;
2021/12/22 11:57:15;;;;;;;41.2;7.9;;;;;;;0.17;68.46777;942.1191;;;;
2021/12/22 11:59:40;;;;;;;6.7;3.2;;;;;;;0.03;66.74121;942.0715;;;;
2021/12/22 12:02:05;;;;;;;7.5;3.1;;;;;;;-0.04;67.47656;942.1193;;;;
2021/12/22 12:04:30;;;;;;;13.1;3.7;;;;;;;0.24;66.65137;942.1085;;;;
2021/12/22 12:06:55;;;;;;;10.5;3.7;;;;;;;0.26;66.92188;942.0952;;;;
2021/12/22 12:09:21;;;;;;;8.6;2.6;;;;;;;0.5;64.71875;942.0111;;;;
2021/12/22 12:11:53;;;;;;;9.7;3.2;;;;;;;0.64;65.73438;941.9201;;;;
2021/12/22 12:14:20;;;;;;;4.6;2.2;;;;;;;0.12;66.48633;941.9729;;;;
2021/12/22 12:21:43;;;;;;;11.6;3.5;;;;;;;0.39;67.85645;941.8293;;;;
2021/12/22 12:24:08;;;;;;;12.3;3.6;;;;;;;0.25;67.91113;941.7194;;;;
2021/12/22 12:26:36;;;;;;;19;4.4;;;;;;;0.35;67.57129;941.7932;;;;
2021/12/22 12:29:01;;;;;;;9.6;3.4;;;;;;;0.49;66.17676;941.7433;;;;
2021/12/22 12:31:26;;;;;;;14.4;3.8;;;;;;;0.58;66.92871;941.7084;;;;
2021/12/22 12:33:51;;;;;;;18.9;6.2;;;;;;;0.6;67.42285;941.6603;;;;
2021/12/22 12:36:47;;;;;;;15.4;4.9;;;;;;;0.8;65.27832;941.6153;;;;
2021/12/22 12:39:13;;;;;;;14.5;4.2;;;;;;;0.73;65.14355;941.6097;;;;
2021/12/22 12:43:12;;;;;;;8;3.5;;;;;;;0.9;64.36719;941.5597;;;;
2021/12/22 12:45:37;;;;;;;9;3.5;;;;;;;1.05;63.38477;941.4783;;;;
2021/12/22 12:48:02;;;;;;;21;4.5;;;;;;;0.93;63.72363;941.4705;;;;
2021/12/22 12:50:28;;;;;;;5.9;3.2;;;;;;;1.03;62.52246;941.4766;;;;
2021/12/22 12:52:52;;;;;;;5.9;3.3;;;;;;;0.84;63.54395;941.5098;;;;
2021/12/22 12:55:18;;;;;;;8.6;3.3;;;;;;;0.83;64.48926;941.5187;;;;
2021/12/22 12:57:43;;;;;;;6.4;3.3;;;;;;;1.04;63.59473;941.5703;;;;
2021/12/22 13:00:10;;;;;;;10.4;3.5;;;;;;;1.12;64.73633;941.543;;;;
2021/12/22 13:02:37;;;;;;;6;3.7;;;;;;;1.04;64.85742;941.525;;;;
2021/12/22 13:05:02;;;;;;;14.2;4.4;;;;;;;1.03;64.92383;941.4468;;;;
2021/12/22 13:07:27;;;;;;;7.4;3.6;;;;;;;1.44;64.06934;941.5147;;;;
2021/12/22 13:09:52;;;;;;;16.2;5.3;;;;;;;1.3;63.5;941.4805;;;;
2021/12/22 13:12:19;;;;;;;10.7;5.5;;;;;;;1.3;64.26074;941.4847;;;;
2021/12/22 13:17:07;;;;;;;13;6.8;;;;;;;1.57;64.50195;941.5474;;;;
2021/12/22 13:19:36;;;;;;;18.6;7;;;;;;;1.64;65.09473;941.5574;;;;
2021/12/22 13:22:01;;;;;;;10.5;5.7;;;;;;;1.61;63.84961;941.5309;;;;
2021/12/22 13:24:28;;;;;;;12.2;5.5;;;;;;;1.49;65.13965;941.6097;;;;
2021/12/22 13:26:53;;;;;;;9;4.9;;;;;;;1.28;66.65918;941.62;;;;
2021/12/22 13:29:20;;;;;;;12.1;5.6;;;;;;;1.6;66.09375;941.5486;;;;
2021/12/22 13:31:45;;;;;;;10.4;5.4;;;;;;;3.25;62.71484;941.505;;;;
2021/12/22 13:34:13;;;;;;;11.8;4.9;;;;;;;6.44;52.27148;941.4767;;;;
2021/12/22 13:36:38;;;;;;;9.6;5.4;;;;;;;7.68;47.80762;941.4208;;;;
2021/12/22 13:39:05;;;;;;;9.5;5.1;;;;;;;7.11;48.02734;941.4597;;;;
2021/12/22 13:41:32;;;;;;;11.7;5.9;;;;;;;7.3;47.76465;941.4938;;;;
2021/12/22 13:43:56;;;;;;;10.4;5.8;;;;;;;6.48;48.34082;941.5209;;;;
2021/12/22 13:46:22;;;;;;;8.4;5.3;;;;;;;6.02;50.10938;941.5031;;;;
2021/12/22 13:48:48;;;;;;;11.4;5.2;;;;;;;6.02;50.91113;941.4753;;;;
2021/12/22 13:51:13;;;;;;;10.8;5.9;;;;;;;4.93;53.03418;941.5598;;;;
2021/12/22 13:53:38;;;;;;;12.6;7.1;;;;;;;4.53;55.39453;941.6378;;;;
2021/12/22 13:56:03;;;;;;;13.8;7.2;;;;;;;4.26;56.43945;941.7029;;;;
2021/12/22 13:58:28;;;;;;;10;6.7;;;;;;;3.66;58.20215;941.7012;;;;
2021/12/22 14:00:57;;;;;;;10.3;7.2;;;;;;;2.52;61.60938;941.7073;;;;
2021/12/22 14:03:25;;;;;;;13.2;8.2;;;;;;;2.19;63.70117;941.7241;;;;
2021/12/22 14:05:55;;;;;;;13.7;7.9;;;;;;;1.8;65.1416;941.7366;;;;
2021/12/22 14:08:23;;;;;;;14;8.9;;;;;;;1.45;66.73047;941.7935;;;;
2021/12/22 14:10:48;;;;;;;15.6;9.5;;;;;;;1.22;68.00195;941.8228;;;;
2021/12/22 14:13:13;;;;;;;16.4;9.3;;;;;;;0.98;68.74512;941.8278;;;;
2021/12/22 14:15:43;;;;;;;18.1;10.7;;;;;;;0.75;69.54492;941.8064;;;;
2021/12/22 14:18:08;;;;;;;17.6;10.9;;;;;;;0.6;70.18945;941.844;;;;
2021/12/22 14:20:33;;;;;;;21.3;13.4;;;;;;;0.46;70.82324;941.8297;;;;
2021/12/22 14:23:01;;;;;;;18.7;12.4;;;;;;;0.5;71.19824;941.8488;;;;
2021/12/22 14:25:29;;;;;;;25.3;16.9;;;;;;;0.44;71.2998;941.7916;;;;
2021/12/22 14:27:52;;;;;;;20;12.7;;;;;;;0.37;71.62207;941.7556;;;;
2021/12/22 14:30:19;;;;;;;18.6;11.3;;;;;;;0.19;72.14941;941.9266;;;;
2021/12/22 14:32:44;;;;;;;18.1;11.2;;;;;;;0.19;72.5625;941.7653;;;;
2021/12/22 14:35:11;;;;;;;21.2;12;;;;;;;0.1;72.91406;941.8806;;;;
2021/12/22 14:37:36;;;;;;;17.6;12.7;;;;;;;-0.1;71.76465;941.9473;;;;
2021/12/22 14:40:03;;;;;;;13.1;9.7;;;;;;;-0.2;71.86035;941.8139;;;;
2021/12/22 14:42:28;;;;;;;13.5;9.3;;;;;;;-0.49;72.17676;941.8308;;;;
2021/12/22 14:44:53;;;;;;;15;9.1;;;;;;;-0.72;72.92676;941.8798;;;;
2021/12/22 14:47:18;;;;;;;13.4;9.1;;;;;;;-0.79;73.26074;941.8767;;;;
2021/12/22 14:49:43;;;;;;;14.6;8.3;;;;;;;-0.95;73.62109;941.8781;;;;
2021/12/22 14:52:09;;;;;;;16.8;9.3;;;;;;;-1.08;73.86523;941.9034;;;;
2021/12/22 14:54:34;;;;;;;16.5;8.5;;;;;;;-1.16;74.00684;941.9188;;;;
2021/12/22 14:56:59;;;;;;;13.9;8.7;;;;;;;-1.2;74.15625;941.9626;;;;
2021/12/22 14:59:25;;;;;;;15.8;9.4;;;;;;;-1.16;74.14063;941.9347;;;;
2021/12/22 15:01:50;;;;;;;15.4;8.2;;;;;;;-1.22;74.2627;941.8867;;;;
2021/12/22 15:04:15;;;;;;;12.6;7.5;;;;;;;-1.37;74.80273;941.9094;;;;
2021/12/22 15:06:40;;;;;;;10.2;6.6;;;;;;;-1.49;75.49121;941.9174;;;;
2021/12/22 15:09:07;;;;;;;9.8;7.4;;;;;;;-1.59;76.77148;941.9441;;;;
2021/12/22 15:11:32;;;;;;;12.4;8.9;;;;;;;-1.56;77.13184;941.8928;;;;
2021/12/22 15:13:57;;;;;;;20.9;13.4;;;;;;;-1.52;77.42871;941.8703;;;;
2021/12/22 15:16:24;;;;;;;17.3;11.8;;;;;;;-1.47;77.36035;941.9252;;;;
2021/12/22 15:18:51;;;;;;;42.8;25.4;;;;;;;-1.43;76.86816;941.9609;;;;
2021/12/22 15:21:16;;;;;;;21.4;13.5;;;;;;;-1.4;77.00781;941.9475;;;;
2021/12/22 15:23:44;;;;;;;22;14.5;;;;;;;-1.48;77.45703;941.9171;;;;
2021/12/22 15:26:10;;;;;;;23.9;16;;;;;;;-1.58;78.0957;942.0365;;;;
2021/12/22 15:28:34;;;;;;;24.6;16.6;;;;;;;-1.66;78.51172;942.0279;;;;
2021/12/22 15:30:59;;;;;;;24.2;16.6;;;;;;;-1.64;78.52734;942.0525;;;;
2021/12/22 15:33:27;;;;;;;30.5;18.4;;;;;;;-1.75;78.61816;942.0608;;;;
2021/12/22 15:35:52;;;;;;;26.5;18.7;;;;;;;-1.88;79.29199;942.0851;;;;